Time;durP1;ratioP1;P1;durP2;ratioP2;P2;SDS_P1;SDS_P2;PMS_P1;PMS_P2;Temp;Humidity;BMP_temperature;BMP_pressure;BME280_temperature;BME280_humidity;BME280_pressure;Samples;Min_cycle;Max_cycle;Signal;HPM_P1;HPM_P2
2024/03/07 00:00:14;;;;;;;31.60;22.23;;;;;;;;;;523138;28;1599;-78
2024/03/07 00:00:29;;;;;;;32.53;22.45;;;;;;;;;;524060;28;2036;-79
2024/03/07 00:00:45;;;;;;;32.77;22.53;;;;;;;;;;523468;28;1599;-78
2024/03/07 00:01:00;;;;;;;33.35;22.83;;;;;;;;;;521844;28;1376;-78
2024/03/07 00:01:16;;;;;;;34.77;22.70;;;;;;;;;;521424;28;1333;-78
2024/03/07 00:01:31;;;;;;;33.15;22.15;;;;;;;;;;523024;28;1234;-78
2024/03/07 00:01:47;;;;;;;32.03;22.10;;;;;;;;;;521076;28;1380;-78
2024/03/07 00:02:03;;;;;;;33.00;21.88;;;;;;;;;;524123;28;1316;-81
2024/03/07 00:02:18;;;;;;;32.92;22.25;;;;;;;;;;523062;28;1343;-78
2024/03/07 00:02:34;;;;;;;32.50;22.53;;;;;;;;;;522829;28;1525;-78
2024/03/07 00:02:51;;;;;;;31.05;21.80;;;;;;;;;;523278;28;1560;-78
2024/03/07 00:03:06;;;;;;;30.70;21.15;;;;;;;;;;523864;28;1259;-79
2024/03/07 00:03:24;;;;;;;33.70;21.83;;;;;;;;;;526730;27;1547;-79
2024/03/07 00:03:39;;;;;;;33.22;21.35;;;;;;;;;;526277;28;1481;-79
2024/03/07 00:03:54;;;;;;;29.33;20.23;;;;;;;;;;522750;28;1431;-78
2024/03/07 00:04:10;;;;;;;28.08;19.88;;;;;;;;;;524466;28;1490;-79
2024/03/07 00:04:25;;;;;;;27.73;19.73;;;;;;;;;;524805;28;1392;-78
2024/03/07 00:04:40;;;;;;;27.53;19.40;;;;;;;;;;523878;28;1493;-78
2024/03/07 00:04:56;;;;;;;25.75;18.45;;;;;;;;;;520962;28;1368;-79
2024/03/07 00:05:12;;;;;;;25.80;18.77;;;;;;;;;;521404;28;1623;-79
2024/03/07 00:06:41;;;;;;;32.03;22.75;;;;;;;;;;526021;28;1275;-78
2024/03/07 00:06:56;;;;;;;33.45;23.20;;;;;;;;;;526603;27;1357;-79
2024/03/07 00:07:12;;;;;;;34.45;23.48;;;;;;;;;;528063;27;1467;-79
2024/03/07 00:07:27;;;;;;;35.30;23.50;;;;;;;;;;525149;28;1386;-78
2024/03/07 00:07:43;;;;;;;34.43;23.60;;;;;;;;;;523910;28;1507;-78
2024/03/07 00:07:59;;;;;;;33.58;23.48;;;;;;;;;;523360;28;1464;-79
2024/03/07 00:08:14;;;;;;;33.25;22.98;;;;;;;;;;524156;28;1360;-79
2024/03/07 00:08:30;;;;;;;31.80;22.37;;;;;;;;;;521596;28;1549;-79
2024/03/07 00:08:45;;;;;;;32.75;22.23;;;;;;;;;;522062;28;1345;-79
2024/03/07 00:09:02;;;;;;;34.22;22.67;;;;;;;;;;522727;28;1491;-79
2024/03/07 00:09:18;;;;;;;34.83;23.50;;;;;;;;;;525834;28;967;-79
2024/03/07 00:09:34;;;;;;;33.30;22.92;;;;;;;;;;523657;28;1537;-78
2024/03/07 00:09:52;;;;;;;32.17;22.70;;;;;;;;;;525975;28;1492;-78
2024/03/07 00:10:09;;;;;;;33.10;22.77;;;;;;;;;;522363;28;1922;-79
2024/03/07 00:10:24;;;;;;;33.13;22.80;;;;;;;;;;524760;28;1339;-79
2024/03/07 00:10:40;;;;;;;31.48;22.50;;;;;;;;;;523941;28;1438;-78
2024/03/07 00:10:55;;;;;;;30.40;21.80;;;;;;;;;;521977;28;1511;-78
2024/03/07 00:11:11;;;;;;;32.45;22.65;;;;;;;;;;521073;28;1368;-78
2024/03/07 00:11:26;;;;;;;34.30;22.90;;;;;;;;;;522048;28;1775;-79
2024/03/07 00:11:41;;;;;;;33.97;22.63;;;;;;;;;;522136;28;1423;-78
2024/03/07 00:11:56;;;;;;;34.08;23.35;;;;;;;;;;521367;28;1442;-78
2024/03/07 00:12:12;;;;;;;34.87;23.93;;;;;;;;;;520972;28;1537;-78
2024/03/07 00:12:27;;;;;;;35.47;23.93;;;;;;;;;;522461;28;1485;-78
2024/03/07 00:12:43;;;;;;;33.60;23.07;;;;;;;;;;523200;28;1335;-79
2024/03/07 00:13:00;;;;;;;33.08;22.45;;;;;;;;;;525201;28;1564;-79
2024/03/07 00:13:15;;;;;;;34.35;22.85;;;;;;;;;;525829;28;1163;-79
2024/03/07 00:13:31;;;;;;;33.47;23.33;;;;;;;;;;525104;28;1469;-79
2024/03/07 00:13:46;;;;;;;32.47;23.07;;;;;;;;;;529528;27;1475;-78
2024/03/07 00:14:01;;;;;;;31.80;22.30;;;;;;;;;;529131;27;1361;-79
2024/03/07 00:14:17;;;;;;;33.13;22.80;;;;;;;;;;528754;27;1389;-79
2024/03/07 00:14:35;;;;;;;33.67;22.80;;;;;;;;;;527553;27;1342;-79
2024/03/07 00:14:50;;;;;;;34.67;23.17;;;;;;;;;;525103;28;1549;-79
2024/03/07 00:15:11;;;;;;;35.05;23.10;;;;;;;;;;525692;28;1409;-78
2024/03/07 00:15:30;;;;;;;35.28;22.70;;;;;;;;;;526158;28;1389;-79
2024/03/07 00:15:45;;;;;;;35.45;23.38;;;;;;;;;;523137;28;1536;-79
2024/03/07 00:16:01;;;;;;;33.90;22.87;;;;;;;;;;522570;28;1522;-79
2024/03/07 00:16:17;;;;;;;34.83;22.83;;;;;;;;;;523408;28;1305;-78
2024/03/07 00:16:33;;;;;;;34.17;23.10;;;;;;;;;;525451;28;814;-78
2024/03/07 00:16:48;;;;;;;31.30;22.38;;;;;;;;;;527128;28;846;-78
2024/03/07 00:17:04;;;;;;;32.83;22.33;;;;;;;;;;525411;28;1200;-78
2024/03/07 00:17:19;;;;;;;35.33;23.30;;;;;;;;;;526823;28;1211;-78
2024/03/07 00:17:35;;;;;;;34.75;23.55;;;;;;;;;;525521;28;1491;-79
2024/03/07 00:17:50;;;;;;;32.97;22.70;;;;;;;;;;523358;28;1624;-79
2024/03/07 00:18:05;;;;;;;33.20;22.98;;;;;;;;;;521056;28;1497;-79
2024/03/07 00:18:21;;;;;;;33.10;23.00;;;;;;;;;;521098;28;846;-81
2024/03/07 00:18:36;;;;;;;33.50;22.80;;;;;;;;;;519302;28;1256;-78
2024/03/07 00:26:03;;;;;;;32.35;22.63;;;;;;;;;;528887;27;699;-79
2024/03/07 00:26:18;;;;;;;33.07;22.73;;;;;;;;;;529431;27;1153;-78
2024/03/07 00:26:33;;;;;;;33.78;22.77;;;;;;;;;;529730;27;929;-78
2024/03/07 00:26:52;;;;;;;33.83;22.73;;;;;;;;;;529726;27;1016;-78
2024/03/07 00:27:07;;;;;;;33.05;22.48;;;;;;;;;;527316;28;1548;-78
2024/03/07 00:27:23;;;;;;;31.17;21.67;;;;;;;;;;527735;28;1034;-78
2024/03/07 00:27:38;;;;;;;31.20;21.40;;;;;;;;;;525465;28;1158;-79
2024/03/07 00:27:54;;;;;;;32.77;22.17;;;;;;;;;;525450;28;1214;-79
2024/03/07 00:28:09;;;;;;;35.45;22.40;;;;;;;;;;525381;28;1245;-78
2024/03/07 00:28:29;;;;;;;35.07;22.93;;;;;;;;;;526478;28;1154;-79
2024/03/07 00:28:44;;;;;;;33.08;23.10;;;;;;;;;;527463;28;877;-79
2024/03/07 00:29:00;;;;;;;31.00;21.80;;;;;;;;;;527368;28;1174;-79
2024/03/07 00:29:17;;;;;;;29.98;20.95;;;;;;;;;;527501;28;1019;-79
2024/03/07 00:29:35;;;;;;;29.40;20.38;;;;;;;;;;527671;28;920;-78
2024/03/07 00:29:53;;;;;;;28.30;20.02;;;;;;;;;;527725;28;882;-78
2024/03/07 00:30:09;;;;;;;26.65;19.40;;;;;;;;;;525275;28;1914;-78
2024/03/07 00:30:24;;;;;;;28.60;20.02;;;;;;;;;;525236;28;1342;-79
2024/03/07 00:30:39;;;;;;;30.57;20.80;;;;;;;;;;525431;28;1254;-79
2024/03/07 00:30:55;;;;;;;28.23;19.80;;;;;;;;;;525415;28;956;-77
2024/03/07 00:31:10;;;;;;;29.85;20.63;;;;;;;;;;526571;28;1358;-79
2024/03/07 00:31:26;;;;;;;32.53;22.47;;;;;;;;;;523298;28;1337;-78
2024/03/07 00:31:41;;;;;;;32.30;22.40;;;;;;;;;;523338;28;1325;-78
2024/03/07 00:31:58;;;;;;;29.70;20.73;;;;;;;;;;524184;28;1017;-78
2024/03/07 00:32:13;;;;;;;27.48;19.30;;;;;;;;;;526427;28;1046;-78
2024/03/07 00:32:29;;;;;;;27.42;19.30;;;;;;;;;;523225;28;1243;-79
2024/03/07 00:32:47;;;;;;;27.83;19.77;;;;;;;;;;521305;28;1220;-78
2024/03/07 00:33:02;;;;;;;29.60;21.13;;;;;;;;;;522987;28;1076;-78
2024/03/07 00:33:17;;;;;;;31.77;22.10;;;;;;;;;;525156;28;1047;-78
2024/03/07 00:33:33;;;;;;;31.53;22.37;;;;;;;;;;525408;28;960;-79
2024/03/07 00:33:48;;;;;;;30.70;21.80;;;;;;;;;;523375;28;1206;-79
2024/03/07 00:34:03;;;;;;;30.90;21.40;;;;;;;;;;523335;28;1188;-78
2024/03/07 00:34:19;;;;;;;32.38;22.15;;;;;;;;;;523968;28;1004;-78
2024/03/07 00:34:35;;;;;;;34.30;22.50;;;;;;;;;;525522;28;849;-78
2024/03/07 00:34:50;;;;;;;33.23;22.17;;;;;;;;;;525605;28;826;-78
2024/03/07 00:35:08;;;;;;;31.37;21.57;;;;;;;;;;527055;28;1052;-79
2024/03/07 00:35:24;;;;;;;31.42;21.98;;;;;;;;;;523564;28;825;-77
2024/03/07 00:35:40;;;;;;;31.13;21.52;;;;;;;;;;524172;28;905;-79
2024/03/07 00:35:55;;;;;;;30.03;20.60;;;;;;;;;;526354;28;1036;-79
2024/03/07 00:36:12;;;;;;;30.77;21.20;;;;;;;;;;530371;27;1014;-78
2024/03/07 00:36:27;;;;;;;32.55;22.63;;;;;;;;;;529772;27;1379;-80
2024/03/07 00:36:43;;;;;;;33.47;22.80;;;;;;;;;;527506;28;1290;-79
2024/03/07 00:36:58;;;;;;;35.33;23.08;;;;;;;;;;527019;28;1094;-79
2024/03/07 00:37:15;;;;;;;34.78;22.90;;;;;;;;;;523245;28;1275;-79
2024/03/07 00:37:30;;;;;;;32.80;22.58;;;;;;;;;;521365;28;1296;-78
2024/03/07 00:37:46;;;;;;;32.90;22.60;;;;;;;;;;521321;28;874;-79
2024/03/07 00:38:01;;;;;;;33.63;22.43;;;;;;;;;;519205;28;1186;-79
2024/03/07 00:38:16;;;;;;;35.17;23.07;;;;;;;;;;519486;28;1192;-79
2024/03/07 00:38:32;;;;;;;35.75;23.02;;;;;;;;;;521813;28;971;-79
2024/03/07 00:38:47;;;;;;;33.87;22.43;;;;;;;;;;521314;28;1206;-78
2024/03/07 00:39:02;;;;;;;31.97;22.20;;;;;;;;;;521708;28;1064;-79
2024/03/07 00:39:19;;;;;;;32.75;22.35;;;;;;;;;;524301;28;1241;-78
2024/03/07 00:39:34;;;;;;;34.38;22.52;;;;;;;;;;523321;28;1538;-80
2024/03/07 00:39:50;;;;;;;32.95;21.83;;;;;;;;;;523560;28;805;-78
2024/03/07 00:40:06;;;;;;;31.17;21.57;;;;;;;;;;525401;28;1196;-78
2024/03/07 00:40:21;;;;;;;32.35;21.95;;;;;;;;;;524791;28;1374;-78
2024/03/07 00:40:36;;;;;;;30.77;21.27;;;;;;;;;;521871;28;1216;-78
2024/03/07 00:40:52;;;;;;;27.90;20.10;;;;;;;;;;523559;28;878;-78
2024/03/07 00:41:07;;;;;;;27.50;19.77;;;;;;;;;;522510;28;1366;-77
2024/03/07 00:41:22;;;;;;;27.37;19.20;;;;;;;;;;521662;28;1310;-78
2024/03/07 00:41:39;;;;;;;27.65;19.40;;;;;;;;;;523511;28;802;-78
2024/03/07 00:41:54;;;;;;;28.50;20.23;;;;;;;;;;523480;28;1036;-77
2024/03/07 00:42:10;;;;;;;28.30;20.13;;;;;;;;;;522050;28;1039;-77
2024/03/07 00:42:27;;;;;;;28.27;20.20;;;;;;;;;;523495;28;1265;-80
2024/03/07 00:42:42;;;;;;;29.02;20.38;;;;;;;;;;523405;28;1387;-77
2024/03/07 00:42:59;;;;;;;30.85;21.33;;;;;;;;;;522030;28;1491;-78
2024/03/07 00:43:14;;;;;;;32.78;22.67;;;;;;;;;;524137;28;1051;-78
2024/03/07 00:43:30;;;;;;;34.05;23.63;;;;;;;;;;525236;28;881;-78
2024/03/07 00:43:47;;;;;;;33.65;23.10;;;;;;;;;;523458;28;1291;-77
2024/03/07 00:44:02;;;;;;;32.97;22.77;;;;;;;;;;522216;28;1209;-77
2024/03/07 00:44:18;;;;;;;33.38;23.05;;;;;;;;;;524254;28;1045;-77
2024/03/07 00:44:34;;;;;;;33.97;22.83;;;;;;;;;;524545;28;1178;-77
2024/03/07 00:44:49;;;;;;;33.88;22.75;;;;;;;;;;523231;28;889;-77
2024/03/07 00:45:06;;;;;;;33.87;22.47;;;;;;;;;;521061;28;1298;-77
2024/03/07 00:45:22;;;;;;;34.75;22.95;;;;;;;;;;520966;28;1373;-78
2024/03/07 00:45:37;;;;;;;32.60;22.67;;;;;;;;;;521858;28;1184;-77
2024/03/07 00:45:53;;;;;;;31.25;22.20;;;;;;;;;;523396;28;1175;-77
2024/03/07 00:46:10;;;;;;;33.28;22.73;;;;;;;;;;524045;28;1100;-78
2024/03/07 00:46:26;;;;;;;34.53;23.50;;;;;;;;;;521407;28;1305;-78
2024/03/07 00:46:41;;;;;;;33.57;23.47;;;;;;;;;;521334;28;1307;-77
2024/03/07 00:46:57;;;;;;;33.15;22.95;;;;;;;;;;523394;28;1321;-77
2024/03/07 00:47:12;;;;;;;36.73;24.23;;;;;;;;;;522561;28;1183;-81
2024/03/07 00:47:27;;;;;;;37.00;24.13;;;;;;;;;;523217;28;1372;-77
2024/03/07 00:47:43;;;;;;;33.53;22.98;;;;;;;;;;525400;28;1326;-77
2024/03/07 00:47:58;;;;;;;32.87;22.97;;;;;;;;;;524589;28;1352;-77
2024/03/07 00:48:14;;;;;;;32.85;22.98;;;;;;;;;;523325;28;901;-77
2024/03/07 00:48:32;;;;;;;32.83;22.67;;;;;;;;;;520775;28;1297;-78
2024/03/07 00:48:47;;;;;;;33.88;23.25;;;;;;;;;;522267;28;1286;-77
2024/03/07 00:49:03;;;;;;;35.10;23.42;;;;;;;;;;521076;28;1183;-77
2024/03/07 00:49:18;;;;;;;34.80;22.97;;;;;;;;;;521749;28;1148;-77
2024/03/07 00:49:33;;;;;;;33.70;23.02;;;;;;;;;;521266;28;1230;-77
2024/03/07 00:49:49;;;;;;;32.27;22.57;;;;;;;;;;524055;28;849;-77
2024/03/07 00:50:05;;;;;;;31.37;21.70;;;;;;;;;;524028;28;1220;-77
2024/03/07 00:50:21;;;;;;;34.45;22.58;;;;;;;;;;525013;28;1311;-77
2024/03/07 00:50:36;;;;;;;34.83;23.13;;;;;;;;;;523703;28;1321;-77
2024/03/07 00:50:51;;;;;;;34.95;22.30;;;;;;;;;;523545;28;1072;-77
2024/03/07 00:51:08;;;;;;;36.30;22.83;;;;;;;;;;523188;28;1202;-77
2024/03/07 00:51:24;;;;;;;35.58;23.40;;;;;;;;;;517803;28;1288;-77
2024/03/07 00:51:39;;;;;;;35.53;23.27;;;;;;;;;;519399;28;918;-77
2024/03/07 00:51:55;;;;;;;35.10;23.75;;;;;;;;;;519352;28;1076;-77
2024/03/07 00:52:10;;;;;;;35.05;23.98;;;;;;;;;;521354;28;1051;-77
2024/03/07 00:52:25;;;;;;;36.03;24.03;;;;;;;;;;519667;28;1262;-77
2024/03/07 00:52:41;;;;;;;35.77;23.93;;;;;;;;;;521794;28;1065;-77
2024/03/07 00:52:56;;;;;;;35.35;23.42;;;;;;;;;;523576;28;1021;-77
2024/03/07 00:53:12;;;;;;;34.07;23.00;;;;;;;;;;525561;28;1379;-78
2024/03/07 00:53:27;;;;;;;32.47;22.80;;;;;;;;;;527221;28;1257;-77
2024/03/07 00:53:42;;;;;;;34.33;23.38;;;;;;;;;;527970;28;1445;-77
2024/03/07 00:53:58;;;;;;;35.70;23.63;;;;;;;;;;527815;27;1420;-77
2024/03/07 00:54:13;;;;;;;34.33;23.53;;;;;;;;;;527067;28;1155;-77
2024/03/07 00:54:28;;;;;;;36.10;24.00;;;;;;;;;;525111;28;1374;-77
2024/03/07 00:54:44;;;;;;;37.70;24.40;;;;;;;;;;523927;28;1446;-78
2024/03/07 00:54:59;;;;;;;36.00;24.37;;;;;;;;;;524938;28;1402;-77
2024/03/07 00:55:14;;;;;;;35.05;23.85;;;;;;;;;;524647;28;1284;-77
2024/03/07 00:55:30;;;;;;;34.00;23.37;;;;;;;;;;522673;28;1359;-77
2024/03/07 00:55:45;;;;;;;34.80;23.30;;;;;;;;;;524080;28;1395;-77
2024/03/07 00:56:02;;;;;;;36.17;23.53;;;;;;;;;;524632;28;1322;-77
2024/03/07 00:56:18;;;;;;;34.22;23.25;;;;;;;;;;522844;28;1440;-77
2024/03/07 00:56:34;;;;;;;35.05;23.15;;;;;;;;;;523205;28;1463;-78
2024/03/07 00:56:49;;;;;;;35.67;22.85;;;;;;;;;;522748;28;1542;-77
2024/03/07 00:57:04;;;;;;;33.43;23.23;;;;;;;;;;523154;28;1359;-77
2024/03/07 00:57:20;;;;;;;33.60;23.33;;;;;;;;;;521308;28;1287;-78
2024/03/07 00:57:35;;;;;;;33.53;22.87;;;;;;;;;;522622;28;911;-76
2024/03/07 00:57:51;;;;;;;32.97;22.40;;;;;;;;;;522942;28;1548;-76
2024/03/07 00:58:06;;;;;;;33.25;22.38;;;;;;;;;;523697;28;1259;-77
2024/03/07 00:58:21;;;;;;;31.20;21.93;;;;;;;;;;525469;28;1235;-77
2024/03/07 00:58:37;;;;;;;29.53;21.27;;;;;;;;;;525820;28;1354;-77
2024/03/07 01:32:59;;;;;;;31.35;21.55;;;;;;;;;;529640;28;719;-77
2024/03/07 01:33:14;;;;;;;33.58;22.90;;;;;;;;;;528517;28;1478;-77
2024/03/07 01:33:30;;;;;;;34.15;23.02;;;;;;;;;;529561;28;987;-77
2024/03/07 01:33:45;;;;;;;34.67;22.90;;;;;;;;;;527687;28;1271;-77
2024/03/07 01:34:00;;;;;;;35.33;22.70;;;;;;;;;;528458;28;889;-77
2024/03/07 01:34:16;;;;;;;34.58;22.52;;;;;;;;;;526346;28;1166;-77
2024/03/07 01:34:31;;;;;;;33.53;22.70;;;;;;;;;;525633;28;849;-77
2024/03/07 01:34:46;;;;;;;33.37;22.73;;;;;;;;;;525529;28;1322;-77
2024/03/07 01:35:02;;;;;;;33.25;22.52;;;;;;;;;;525519;28;1027;-77
2024/03/07 01:35:17;;;;;;;35.07;23.23;;;;;;;;;;526861;28;814;-77
2024/03/07 01:35:32;;;;;;;34.65;23.25;;;;;;;;;;527799;28;869;-77
2024/03/07 01:35:48;;;;;;;33.97;22.57;;;;;;;;;;525568;28;1132;-77
2024/03/07 01:36:05;;;;;;;33.43;22.03;;;;;;;;;;524319;28;1051;-77
2024/03/07 01:36:23;;;;;;;32.58;22.00;;;;;;;;;;527382;28;936;-77
2024/03/07 01:36:38;;;;;;;35.17;23.55;;;;;;;;;;526415;28;1378;-77
2024/03/07 01:36:53;;;;;;;36.40;23.92;;;;;;;;;;525597;28;1219;-77
2024/03/07 01:37:09;;;;;;;33.80;23.13;;;;;;;;;;522968;28;1327;-77
2024/03/07 01:37:24;;;;;;;33.07;22.73;;;;;;;;;;521313;28;1053;-77
2024/03/07 01:37:40;;;;;;;34.45;22.77;;;;;;;;;;522328;28;799;-77
2024/03/07 01:37:55;;;;;;;34.90;23.07;;;;;;;;;;523506;28;842;-77
2024/03/07 01:38:11;;;;;;;35.20;23.17;;;;;;;;;;521784;28;1215;-77
2024/03/07 01:38:26;;;;;;;34.13;22.63;;;;;;;;;;521286;28;1421;-76
2024/03/07 01:38:42;;;;;;;32.08;21.63;;;;;;;;;;521654;28;1144;-77
2024/03/07 01:39:01;;;;;;;33.60;21.73;;;;;;;;;;522144;28;1127;-79
2024/03/07 01:39:16;;;;;;;36.53;22.88;;;;;;;;;;521238;28;1303;-79
2024/03/07 01:39:32;;;;;;;34.90;23.10;;;;;;;;;;521442;28;890;-77
2024/03/07 01:39:47;;;;;;;33.47;22.52;;;;;;;;;;519483;28;1242;-77
2024/03/07 01:40:05;;;;;;;32.73;22.23;;;;;;;;;;518086;28;1171;-76
2024/03/07 01:40:20;;;;;;;32.95;22.63;;;;;;;;;;522215;28;870;-77
2024/03/07 01:40:36;;;;;;;32.70;22.90;;;;;;;;;;524731;28;992;-77
2024/03/07 01:40:51;;;;;;;34.13;23.35;;;;;;;;;;525683;28;937;-77
2024/03/07 01:41:06;;;;;;;35.27;23.13;;;;;;;;;;524374;28;981;-77
2024/03/07 01:41:22;;;;;;;34.27;22.73;;;;;;;;;;525205;28;1369;-77
2024/03/07 01:41:37;;;;;;;33.65;23.20;;;;;;;;;;526117;28;763;-77
2024/03/07 01:41:52;;;;;;;34.90;23.77;;;;;;;;;;528377;28;782;-76
2024/03/07 01:42:08;;;;;;;36.47;23.87;;;;;;;;;;527403;28;1135;-77
2024/03/07 01:42:24;;;;;;;36.08;23.90;;;;;;;;;;525528;28;1246;-77
2024/03/07 01:42:40;;;;;;;35.50;23.63;;;;;;;;;;525571;28;948;-77
2024/03/07 01:42:56;;;;;;;35.58;23.48;;;;;;;;;;523503;28;1169;-77
2024/03/07 01:43:11;;;;;;;34.78;23.20;;;;;;;;;;523897;28;1182;-77
2024/03/07 01:43:26;;;;;;;35.77;23.30;;;;;;;;;;525294;28;874;-77
2024/03/07 01:43:42;;;;;;;37.27;23.73;;;;;;;;;;525570;28;1264;-77
2024/03/07 01:43:57;;;;;;;37.42;23.88;;;;;;;;;;525603;28;996;-77
2024/03/07 01:44:13;;;;;;;35.93;23.30;;;;;;;;;;523453;28;1329;-77
2024/03/07 01:44:31;;;;;;;34.42;23.13;;;;;;;;;;521498;28;1454;-77
2024/03/07 01:44:46;;;;;;;33.95;23.13;;;;;;;;;;522088;28;1006;-77
2024/03/07 01:45:02;;;;;;;35.63;23.70;;;;;;;;;;521417;28;1320;-77
2024/03/07 01:45:21;;;;;;;36.45;23.48;;;;;;;;;;521388;28;1100;-77
2024/03/07 01:45:39;;;;;;;34.67;22.92;;;;;;;;;;522637;28;972;-77
2024/03/07 01:45:58;;;;;;;33.63;23.30;;;;;;;;;;523457;28;866;-77
2024/03/07 01:46:14;;;;;;;34.40;23.55;;;;;;;;;;526423;28;963;-77
2024/03/07 01:46:29;;;;;;;35.72;23.42;;;;;;;;;;525452;28;1217;-76
2024/03/07 01:46:45;;;;;;;37.87;23.70;;;;;;;;;;525688;28;906;-77
2024/03/07 01:47:03;;;;;;;37.20;24.00;;;;;;;;;;527370;28;1037;-77
2024/03/07 01:47:18;;;;;;;37.13;24.08;;;;;;;;;;527692;28;1007;-77
2024/03/07 01:47:34;;;;;;;38.23;24.60;;;;;;;;;;527755;28;1012;-77
2024/03/07 01:47:49;;;;;;;35.63;23.98;;;;;;;;;;527696;28;886;-77
2024/03/07 01:48:05;;;;;;;33.83;23.57;;;;;;;;;;529095;28;910;-77
2024/03/07 01:48:28;;;;;;;33.92;23.33;;;;;;;;;;528001;28;1277;-77
2024/03/07 01:48:44;;;;;;;34.70;23.15;;;;;;;;;;529762;28;896;-77
2024/03/07 01:48:59;;;;;;;36.00;23.45;;;;;;;;;;529693;28;957;-77
2024/03/07 01:49:15;;;;;;;36.20;24.23;;;;;;;;;;528598;28;1018;-77
2024/03/07 01:49:30;;;;;;;35.90;24.23;;;;;;;;;;527589;28;1276;-78
2024/03/07 01:49:46;;;;;;;35.88;23.88;;;;;;;;;;527593;28;1071;-77
2024/03/07 01:50:03;;;;;;;33.60;23.50;;;;;;;;;;527314;28;1151;-77
2024/03/07 01:50:18;;;;;;;33.63;23.65;;;;;;;;;;525248;28;1971;-77
2024/03/07 01:50:38;;;;;;;35.53;23.63;;;;;;;;;;525409;28;810;-76
2024/03/07 01:50:53;;;;;;;34.33;22.83;;;;;;;;;;523331;28;1354;-77
2024/03/07 01:51:08;;;;;;;35.03;23.63;;;;;;;;;;523436;28;966;-77
2024/03/07 01:51:24;;;;;;;36.05;24.10;;;;;;;;;;523596;28;907;-77
2024/03/07 01:51:39;;;;;;;35.40;23.70;;;;;;;;;;523410;28;1303;-76
2024/03/07 01:51:55;;;;;;;34.80;23.80;;;;;;;;;;524399;28;1281;-77
2024/03/07 01:52:11;;;;;;;33.47;23.50;;;;;;;;;;526846;28;846;-77
2024/03/07 01:52:26;;;;;;;34.28;23.77;;;;;;;;;;527718;28;1316;-77
2024/03/07 01:52:42;;;;;;;34.72;23.38;;;;;;;;;;525340;28;1285;-77
2024/03/07 01:52:59;;;;;;;34.43;23.10;;;;;;;;;;525065;28;1242;-76
2024/03/07 01:53:14;;;;;;;35.38;24.25;;;;;;;;;;521681;28;2530;-77
2024/03/07 01:53:32;;;;;;;34.03;24.13;;;;;;;;;;180600;28;10000909;-77
2024/03/07 01:53:51;;;;;;;33.78;23.38;;;;;;;;;;262497;28;10000801;-77
2024/03/07 01:54:09;;;;;;;33.58;23.58;;;;;;;;;;525197;28;1852;-77
2024/03/07 01:54:26;;;;;;;34.05;23.25;;;;;;;;;;525215;28;850;-77
2024/03/07 01:54:41;;;;;;;34.40;23.17;;;;;;;;;;523560;28;1266;-77
2024/03/07 01:54:57;;;;;;;35.23;23.13;;;;;;;;;;523490;28;1168;-77
2024/03/07 01:55:13;;;;;;;34.67;23.17;;;;;;;;;;521916;28;1449;-77
2024/03/07 01:55:28;;;;;;;34.20;23.67;;;;;;;;;;523143;28;874;-77
2024/03/07 01:55:44;;;;;;;36.03;23.50;;;;;;;;;;524081;28;922;-77
2024/03/07 01:56:02;;;;;;;35.85;23.30;;;;;;;;;;525540;28;815;-76
2024/03/07 01:56:19;;;;;;;33.08;23.30;;;;;;;;;;523191;28;1408;-77
2024/03/07 01:56:36;;;;;;;32.78;22.95;;;;;;;;;;523335;28;1004;-77
2024/03/07 01:56:51;;;;;;;36.90;23.75;;;;;;;;;;521367;28;1299;-77
2024/03/07 01:57:08;;;;;;;35.83;23.25;;;;;;;;;;524213;28;1362;-78
2024/03/07 01:57:23;;;;;;;33.53;23.00;;;;;;;;;;524046;28;835;-77
2024/03/07 01:57:39;;;;;;;33.40;22.88;;;;;;;;;;523950;28;819;-77
2024/03/07 01:57:58;;;;;;;34.00;23.23;;;;;;;;;;523848;28;1037;-76
2024/03/07 01:58:18;;;;;;;35.00;23.48;;;;;;;;;;523645;28;1314;-77
2024/03/07 01:58:35;;;;;;;34.72;23.58;;;;;;;;;;523708;28;1283;-77
2024/03/07 01:58:52;;;;;;;35.03;24.20;;;;;;;;;;525618;28;1297;-77
2024/03/07 01:59:08;;;;;;;35.08;23.58;;;;;;;;;;523475;28;1217;-77
2024/03/07 01:59:24;;;;;;;34.65;23.17;;;;;;;;;;523863;28;1502;-77
2024/03/07 01:59:39;;;;;;;35.20;23.73;;;;;;;;;;523896;28;917;-76
2024/03/07 01:59:55;;;;;;;36.13;23.80;;;;;;;;;;521731;28;1144;-76
2024/03/07 02:00:11;;;;;;;34.40;23.30;;;;;;;;;;523678;28;1039;-77
2024/03/07 02:00:28;;;;;;;34.85;23.90;;;;;;;;;;524919;28;1380;-76
2024/03/07 02:00:43;;;;;;;35.00;24.00;;;;;;;;;;524783;28;853;-77
2024/03/07 02:01:00;;;;;;;35.75;24.35;;;;;;;;;;526034;28;1034;-77
2024/03/07 02:01:15;;;;;;;35.83;24.25;;;;;;;;;;525655;28;1234;-77
2024/03/07 02:01:31;;;;;;;35.00;24.08;;;;;;;;;;527431;28;1086;-77
2024/03/07 02:01:46;;;;;;;35.88;24.13;;;;;;;;;;523652;28;1290;-77
2024/03/07 02:02:02;;;;;;;35.23;23.83;;;;;;;;;;522685;28;1283;-77
2024/03/07 02:02:17;;;;;;;35.30;23.95;;;;;;;;;;523093;28;1027;-76
2024/03/07 02:02:33;;;;;;;35.23;23.73;;;;;;;;;;523794;28;803;-77
2024/03/07 02:02:49;;;;;;;34.70;23.45;;;;;;;;;;523961;28;886;-77
2024/03/07 02:03:06;;;;;;;34.73;23.20;;;;;;;;;;525484;28;1041;-77
2024/03/07 02:03:22;;;;;;;34.90;23.67;;;;;;;;;;523287;28;1501;-77
2024/03/07 02:03:37;;;;;;;34.20;23.45;;;;;;;;;;524480;28;969;-77
2024/03/07 02:03:53;;;;;;;33.70;22.73;;;;;;;;;;526634;28;871;-78
2024/03/07 02:04:08;;;;;;;32.78;22.48;;;;;;;;;;527765;28;1079;-77
2024/03/07 02:04:24;;;;;;;32.33;22.50;;;;;;;;;;525938;28;1192;-77
2024/03/07 02:04:39;;;;;;;32.25;22.05;;;;;;;;;;525807;28;1178;-77
2024/03/07 02:04:55;;;;;;;32.60;22.60;;;;;;;;;;523812;28;1066;-77
2024/03/07 02:05:10;;;;;;;32.73;22.67;;;;;;;;;;521938;28;1232;-76
2024/03/07 02:05:26;;;;;;;32.03;22.20;;;;;;;;;;523748;28;1239;-77
2024/03/07 02:05:41;;;;;;;32.33;22.17;;;;;;;;;;521707;28;1090;-76
2024/03/07 02:05:57;;;;;;;31.63;21.73;;;;;;;;;;519805;28;1290;-76
2024/03/07 02:06:12;;;;;;;32.00;22.33;;;;;;;;;;521648;28;1000;-76
2024/03/07 02:06:28;;;;;;;33.50;23.02;;;;;;;;;;522086;28;819;-76
2024/03/07 02:06:44;;;;;;;32.58;22.88;;;;;;;;;;523776;28;937;-76
2024/03/07 02:07:00;;;;;;;32.72;23.02;;;;;;;;;;523720;28;1056;-76
2024/03/07 02:07:15;;;;;;;34.88;22.92;;;;;;;;;;525374;28;1051;-76
2024/03/07 02:07:31;;;;;;;33.80;22.33;;;;;;;;;;528467;27;1111;-77
2024/03/07 02:07:47;;;;;;;34.03;22.75;;;;;;;;;;530298;27;833;-77
2024/03/07 02:08:03;;;;;;;34.38;22.65;;;;;;;;;;527876;28;1185;-77
2024/03/07 02:08:19;;;;;;;33.40;22.60;;;;;;;;;;527370;28;1236;-77
2024/03/07 02:08:34;;;;;;;32.95;22.80;;;;;;;;;;525764;28;1348;-77
2024/03/07 02:08:50;;;;;;;32.80;22.27;;;;;;;;;;525834;28;1217;-77
2024/03/07 02:09:05;;;;;;;34.10;22.85;;;;;;;;;;525719;28;1428;-77
2024/03/07 02:09:21;;;;;;;34.37;23.40;;;;;;;;;;525761;28;1055;-77
2024/03/07 02:09:36;;;;;;;34.40;23.00;;;;;;;;;;525804;28;968;-77
2024/03/07 02:10:05;;;;;;;33.67;22.75;;;;;;;;;;525902;28;803;-77
2024/03/07 02:10:20;;;;;;;34.38;22.77;;;;;;;;;;525220;28;1919;-77
2024/03/07 02:10:36;;;;;;;33.90;22.50;;;;;;;;;;527919;28;1170;-77
2024/03/07 02:10:51;;;;;;;33.33;22.88;;;;;;;;;;528028;28;838;-77
2024/03/07 02:11:07;;;;;;;33.77;23.20;;;;;;;;;;530058;27;889;-78
2024/03/07 02:11:23;;;;;;;34.58;23.40;;;;;;;;;;527580;28;1245;-77
2024/03/07 02:11:39;;;;;;;34.55;23.50;;;;;;;;;;528050;28;913;-77
2024/03/07 02:11:54;;;;;;;34.22;23.08;;;;;;;;;;525860;28;1298;-76
2024/03/07 02:12:09;;;;;;;34.73;23.00;;;;;;;;;;526178;28;884;-76
2024/03/07 02:12:24;;;;;;;34.50;23.13;;;;;;;;;;528065;28;790;-76
2024/03/07 02:12:40;;;;;;;34.70;22.75;;;;;;;;;;525692;28;1294;-77
2024/03/07 02:12:55;;;;;;;34.97;22.97;;;;;;;;;;525747;28;1252;-77
2024/03/07 02:13:11;;;;;;;34.13;22.98;;;;;;;;;;525776;28;1042;-77
2024/03/07 02:13:26;;;;;;;33.97;22.97;;;;;;;;;;525532;28;1024;-77
2024/03/07 02:13:42;;;;;;;34.17;23.10;;;;;;;;;;525954;28;802;-76
2024/03/07 02:13:57;;;;;;;35.27;23.27;;;;;;;;;;525779;28;1016;-77
2024/03/07 02:14:12;;;;;;;35.83;23.37;;;;;;;;;;525705;28;980;-77
2024/03/07 02:14:29;;;;;;;34.95;22.65;;;;;;;;;;526045;28;1239;-77
2024/03/07 02:14:44;;;;;;;33.30;22.05;;;;;;;;;;528527;28;818;-76
2024/03/07 02:15:00;;;;;;;33.47;23.13;;;;;;;;;;527765;28;1198;-77
2024/03/07 02:15:16;;;;;;;32.87;23.20;;;;;;;;;;528850;27;1179;-77
2024/03/07 02:15:32;;;;;;;32.00;22.20;;;;;;;;;;529920;27;904;-77
2024/03/07 02:15:48;;;;;;;30.40;21.42;;;;;;;;;;527960;28;1391;-77
2024/03/07 02:16:03;;;;;;;31.47;21.77;;;;;;;;;;524576;28;1324;-77
2024/03/07 02:16:20;;;;;;;34.97;23.17;;;;;;;;;;523818;28;881;-77
2024/03/07 02:16:35;;;;;;;33.72;22.65;;;;;;;;;;523777;28;908;-77
2024/03/07 02:16:50;;;;;;;34.20;22.43;;;;;;;;;;523634;28;1178;-77
2024/03/07 02:17:06;;;;;;;35.15;22.80;;;;;;;;;;523630;28;1209;-77
2024/03/07 02:17:21;;;;;;;34.20;22.77;;;;;;;;;;521634;28;1328;-77
2024/03/07 02:17:38;;;;;;;32.63;22.90;;;;;;;;;;519510;28;1134;-76
2024/03/07 02:17:53;;;;;;;34.30;23.40;;;;;;;;;;520314;28;997;-77
2024/03/07 02:18:09;;;;;;;34.60;22.95;;;;;;;;;;519678;28;1374;-77